Time;durP1;ratioP1;P1;durP2;ratioP2;P2;SDS_P1;SDS_P2;PMS_P1;PMS_P2;Temp;Humidity;BMP_temperature;BMP_pressure;BME280_temperature;BME280_humidity;BME280_pressure;Samples;Min_cycle;Max_cycle;Signal;HPM_P1;HPM_P2
2023/08/19 07:51:17;;;;;;;;;28.25;26.25;;;;;;;;5126107;27;13421;-82
2023/08/19 07:53:42;;;;;;;;;30.00;29.50;;;;;;;;5113014;27;9351;-81
2023/08/19 07:56:07;;;;;;;;;29.00;29.00;;;;;;;;5129416;27;9464;-81
2023/08/19 07:58:33;;;;;;;;;28.33;27.33;;;;;;;;5129115;27;8875;-77
2023/08/19 08:00:58;;;;;;;;;28.67;27.00;;;;;;;;5129085;27;8792;-77
2023/08/19 08:03:24;;;;;;;;;31.67;28.67;;;;;;;;5128033;27;8811;-77
2023/08/19 08:05:49;;;;;;;;;25.67;25.67;;;;;;;;5128007;27;8791;-73
2023/08/19 08:08:14;;;;;;;;;28.33;28.33;;;;;;;;5127899;27;8965;-75
2023/08/19 08:10:40;;;;;;;;;26.33;25.00;;;;;;;;5127573;27;8819;-73
2023/08/19 08:13:05;;;;;;;;;24.00;24.00;;;;;;;;5127293;27;8795;-79
2023/08/19 08:15:30;;;;;;;;;30.00;27.67;;;;;;;;5127003;27;8796;-78
2023/08/19 08:17:56;;;;;;;;;32.00;29.67;;;;;;;;5125271;27;8799;-79
2023/08/19 08:20:21;;;;;;;;;35.33;32.33;;;;;;;;5125427;27;8818;-74
2023/08/19 08:22:46;;;;;;;;;21.67;21.67;;;;;;;;5125316;27;8823;-74
2023/08/19 08:25:12;;;;;;;;;27.67;25.67;;;;;;;;5125040;27;8808;-81
2023/08/19 08:27:37;;;;;;;;;26.33;26.33;;;;;;;;5106580;27;8811;-82
2023/08/19 08:30:04;;;;;;;;;21.00;21.00;;;;;;;;5107501;27;8831;-81
2023/08/19 08:32:29;;;;;;;;;22.00;22.00;;;;;;;;5107238;27;8800;-80
2023/08/19 08:34:55;;;;;;;;;27.33;27.00;;;;;;;;5108529;27;8850;-78
2023/08/19 08:37:20;;;;;;;;;27.67;24.33;;;;;;;;5127534;27;8772;-68
2023/08/19 08:39:45;;;;;;;;;34.67;30.67;;;;;;;;5126498;27;9710;-66
2023/08/19 08:42:11;;;;;;;;;33.33;29.00;;;;;;;;5126685;27;8808;-66
2023/08/19 08:44:37;;;;;;;;;34.33;29.67;;;;;;;;5126630;27;8790;-66
2023/08/19 08:47:03;;;;;;;;;37.50;32.00;;;;;;;;5126357;27;9588;-66
2023/08/19 08:49:28;;;;;;;;;30.50;28.00;;;;;;;;5126371;27;8811;-65
2023/08/19 08:51:55;;;;;;;;;34.33;30.00;;;;;;;;5126113;27;8789;-68
2023/08/19 08:54:21;;;;;;;;;43.25;35.25;;;;;;;;5126761;27;8810;-65
2023/08/19 08:56:46;;;;;;;;;29.25;28.50;;;;;;;;5126933;27;8937;-68
2023/08/19 08:59:12;;;;;;;;;32.67;29.00;;;;;;;;5108203;27;9704;-66
2023/08/19 09:01:38;;;;;;;;;27.33;27.00;;;;;;;;5118303;28;9470;-71
2023/08/19 09:04:04;;;;;;;;;23.75;23.75;;;;;;;;5113017;28;8796;-66
2023/08/19 09:06:30;;;;;;;;;25.75;25.75;;;;;;;;5113010;28;8792;-65
2023/08/19 09:09:02;;;;;;;;;23.50;22.00;;;;;;;;5112823;28;8807;-66
2023/08/19 09:11:28;;;;;;;;;31.50;29.75;;;;;;;;5112495;28;11459;-64
2023/08/19 09:13:57;;;;;;;;;36.33;30.33;;;;;;;;5112997;28;8792;-64
2023/08/19 09:16:22;;;;;;;;;40.75;33.75;;;;;;;;5112628;28;8856;-64
2023/08/19 09:18:48;;;;;;;;;35.67;31.33;;;;;;;;5112779;28;8906;-66
2023/08/19 09:21:13;;;;;;;;;39.67;32.00;;;;;;;;5112740;28;8868;-67
2023/08/19 09:23:40;;;;;;;;;43.33;35.67;;;;;;;;5112945;28;8814;-66
2023/08/19 09:26:08;;;;;;;;;43.75;35.75;;;;;;;;5112651;28;8805;-66
2023/08/19 09:28:33;;;;;;;;;37.50;33.25;;;;;;;;5111759;28;8812;-64
2023/08/19 09:30:58;;;;;;;;;40.33;33.00;;;;;;;;5112283;28;8799;-64
2023/08/19 09:33:24;;;;;;;;;26.00;26.00;;;;;;;;5112301;28;8834;-64
2023/08/19 09:35:57;;;;;;;;;37.33;32.00;;;;;;;;5112261;28;8802;-64
2023/08/19 09:38:25;;;;;;;;;38.75;33.50;;;;;;;;5091937;28;8847;-66
2023/08/19 09:40:58;;;;;;;;;22.60;20.40;;;;;;;;5091934;28;9021;-65
2023/08/19 09:43:23;;;;;;;;;42.75;36.00;;;;;;;;5091886;28;9504;-65
2023/08/19 09:45:48;;;;;;;;;40.00;34.00;;;;;;;;5073716;28;8855;-64
2023/08/19 09:48:14;;;;;;;;;32.00;29.67;;;;;;;;5091207;28;8802;-64
2023/08/19 09:50:44;;;;;;;;;25.25;24.75;;;;;;;;5073322;28;8830;-67
2023/08/19 09:53:14;;;;;;;;;47.00;40.00;;;;;;;;5091358;28;8802;-64
2023/08/19 09:55:44;;;;;;;;;41.50;35.00;;;;;;;;5091668;28;8778;-64
2023/08/19 09:58:09;;;;;;;;;27.25;26.50;;;;;;;;5091659;28;8810;-63
2023/08/19 10:00:34;;;;;;;;;26.33;26.33;;;;;;;;5073123;28;8845;-64
2023/08/19 10:03:00;;;;;;;;;45.33;39.00;;;;;;;;5091257;28;9500;-64
2023/08/19 10:05:27;;;;;;;;;39.33;34.33;;;;;;;;5091569;28;8810;-63
2023/08/19 10:07:55;;;;;;;;;33.25;29.50;;;;;;;;5107307;28;8916;-63
2023/08/19 10:10:21;;;;;;;;;25.75;24.25;;;;;;;;5111499;28;8803;-64
2023/08/19 10:12:48;;;;;;;;;41.67;36.33;;;;;;;;5110338;28;8803;-65
2023/08/19 10:15:13;;;;;;;;;28.25;24.75;;;;;;;;5110487;28;8966;-73
2023/08/19 10:17:41;;;;;;;;;29.00;26.67;;;;;;;;5110430;28;8888;-79
2023/08/19 10:20:10;;;;;;;;;26.50;24.25;;;;;;;;5111116;28;8877;-76
2023/08/19 10:22:36;;;;;;;;;29.50;28.00;;;;;;;;5111076;28;9619;-77
2023/08/19 10:25:04;;;;;;;;;25.25;24.50;;;;;;;;5110349;28;8805;-76
2023/08/19 10:27:29;;;;;;;;;25.00;24.00;;;;;;;;5110914;28;8782;-75
2023/08/19 10:29:55;;;;;;;;;23.67;23.33;;;;;;;;5111047;28;8838;-77
2023/08/19 10:32:28;;;;;;;;;27.00;27.00;;;;;;;;5110889;28;8773;-72
2023/08/19 10:35:00;;;;;;;;;27.25;25.00;;;;;;;;5108520;28;8806;-73
2023/08/19 10:37:29;;;;;;;;;45.25;38.00;;;;;;;;5110796;28;8816;-71
2023/08/19 10:40:05;;;;;;;;;25.75;25.75;;;;;;;;5110623;28;8870;-71
2023/08/19 10:42:30;;;;;;;;;45.67;37.67;;;;;;;;5108877;28;8768;-70
2023/08/19 10:44:55;;;;;;;;;43.67;37.00;;;;;;;;5091137;27;9115;-70
2023/08/19 10:47:21;;;;;;;;;23.00;23.00;;;;;;;;5110593;28;8778;-71
2023/08/19 10:49:47;;;;;;;;;33.33;30.33;;;;;;;;5110775;28;8821;-72
2023/08/19 10:52:21;;;;;;;;;42.67;36.33;;;;;;;;5110915;28;8797;-74
2023/08/19 10:54:47;;;;;;;;;43.33;36.67;;;;;;;;5110663;28;8815;-75
2023/08/19 10:57:24;;;;;;;;;36.67;32.67;;;;;;;;5110660;28;9108;-71
2023/08/19 10:59:56;;;;;;;;;41.00;35.67;;;;;;;;5110338;28;8817;-71
2023/08/19 11:02:21;;;;;;;;;25.50;24.75;;;;;;;;5110402;28;9306;-79
2023/08/19 11:04:47;;;;;;;;;26.33;24.67;;;;;;;;5110579;28;8777;-73
2023/08/19 11:07:13;;;;;;;;;27.50;26.25;;;;;;;;5110642;28;8788;-73
2023/08/19 11:09:39;;;;;;;;;21.67;21.33;;;;;;;;5110234;28;8935;-71
2023/08/19 11:12:05;;;;;;;;;43.67;37.00;;;;;;;;5110502;28;8760;-70
2023/08/19 11:14:30;;;;;;;;;35.67;32.67;;;;;;;;5110279;28;9048;-70
2023/08/19 11:16:56;;;;;;;;;38.00;31.33;;;;;;;;5109483;28;9530;-69
2023/08/19 11:19:22;;;;;;;;;46.67;39.00;;;;;;;;5091094;28;8904;-72
2023/08/19 11:21:47;;;;;;;;;42.33;36.33;;;;;;;;5107183;28;8858;-70
2023/08/19 11:24:12;;;;;;;;;39.33;33.33;;;;;;;;5109699;28;8801;-71
2023/08/19 11:26:41;;;;;;;;;43.75;37.50;;;;;;;;5110158;28;8781;-68
2023/08/19 11:29:07;;;;;;;;;43.67;37.00;;;;;;;;5110616;28;8876;-69
2023/08/19 11:31:34;;;;;;;;;44.75;37.00;;;;;;;;5091773;28;10005;-71
2023/08/19 11:33:59;;;;;;;;;43.25;37.50;;;;;;;;5109796;28;8785;-71
2023/08/19 11:36:27;;;;;;;;;42.33;34.33;;;;;;;;5109995;28;9456;-70
2023/08/19 11:38:55;;;;;;;;;43.75;35.75;;;;;;;;5109786;28;8788;-69
2023/08/19 11:41:21;;;;;;;;;47.00;39.00;;;;;;;;5110050;28;9401;-70
2023/08/19 11:43:46;;;;;;;;;21.00;21.00;;;;;;;;5112113;27;9572;-71
2023/08/19 11:46:12;;;;;;;;;43.25;35.50;;;;;;;;5124248;27;9039;-73
2023/08/19 11:48:38;;;;;;;;;43.00;35.75;;;;;;;;5109301;28;8939;-72
2023/08/19 11:51:08;;;;;;;;;24.25;22.50;;;;;;;;5109285;28;8844;-73
2023/08/19 11:53:33;;;;;;;;;42.00;34.67;;;;;;;;5108349;28;8786;-70
2023/08/19 11:55:59;;;;;;;;;35.00;32.00;;;;;;;;5110059;28;9172;-70
2023/08/19 11:58:27;;;;;;;;;36.25;31.75;;;;;;;;5109979;28;8943;-70
2023/08/19 12:00:54;;;;;;;;;36.75;30.75;;;;;;;;5109798;28;8793;-69
2023/08/19 12:03:19;;;;;;;;;40.25;32.50;;;;;;;;5109716;28;10352;-70
2023/08/19 12:05:44;;;;;;;;;36.67;32.00;;;;;;;;5109734;28;9461;-71
2023/08/19 12:08:26;;;;;;;;;39.33;33.33;;;;;;;;5110039;28;9521;-69
2023/08/19 12:10:52;;;;;;;;;41.67;34.67;;;;;;;;5109357;28;8783;-70
2023/08/19 12:13:20;;;;;;;;;42.67;36.33;;;;;;;;5109889;28;9237;-71
2023/08/19 12:15:45;;;;;;;;;38.25;33.00;;;;;;;;5109740;28;9328;-71
2023/08/19 12:18:14;;;;;;;;;22.00;19.33;;;;;;;;5109500;28;9464;-69
2023/08/19 12:20:39;;;;;;;;;29.50;26.50;;;;;;;;5109906;28;8816;-70
2023/08/19 12:23:04;;;;;;;;;34.00;30.33;;;;;;;;5091211;28;9438;-71
2023/08/19 12:25:30;;;;;;;;;17.67;17.67;;;;;;;;5109525;28;8792;-68
2023/08/19 12:27:58;;;;;;;;;28.67;27.67;;;;;;;;5109536;28;8800;-69
2023/08/19 12:30:23;;;;;;;;;21.75;20.50;;;;;;;;5109195;28;8895;-70
2023/08/19 12:32:48;;;;;;;;;23.33;23.00;;;;;;;;5109656;28;8815;-71
2023/08/19 12:35:14;;;;;;;;;22.00;20.33;;;;;;;;5109682;28;8780;-71
2023/08/19 12:37:39;;;;;;;;;25.67;23.67;;;;;;;;5110016;28;8813;-71
2023/08/19 12:40:05;;;;;;;;;21.67;21.67;;;;;;;;5111569;28;8844;-71
2023/08/19 12:42:31;;;;;;;;;31.33;29.67;;;;;;;;5111668;28;8892;-71
2023/08/19 12:44:56;;;;;;;;;26.67;26.00;;;;;;;;5112083;28;9179;-72
2023/08/19 12:47:22;;;;;;;;;35.00;31.00;;;;;;;;5111694;28;8807;-72
2023/08/19 12:49:47;;;;;;;;;40.00;33.67;;;;;;;;5112695;28;8928;-73
2023/08/19 12:52:13;;;;;;;;;35.00;31.00;;;;;;;;5112883;28;8805;-73
2023/08/19 12:54:38;;;;;;;;;36.33;32.33;;;;;;;;5113222;28;8932;-71
2023/08/19 12:57:04;;;;;;;;;42.33;33.67;;;;;;;;5113204;28;8797;-78
2023/08/19 12:59:29;;;;;;;;;35.33;32.33;;;;;;;;5113278;28;8821;-74
2023/08/19 13:01:54;;;;;;;;;35.75;31.75;;;;;;;;5112676;28;8808;-71
2023/08/19 13:04:20;;;;;;;;;24.00;23.00;;;;;;;;5112458;28;8793;-72
2023/08/19 13:06:47;;;;;;;;;34.33;31.00;;;;;;;;5112503;28;8915;-71
2023/08/19 13:09:13;;;;;;;;;32.33;29.67;;;;;;;;5112515;28;8780;-72
2023/08/19 13:11:38;;;;;;;;;33.33;29.00;;;;;;;;5112637;28;9098;-74
2023/08/19 13:14:03;;;;;;;;;35.00;32.00;;;;;;;;5112569;28;11446;-73
2023/08/19 13:16:29;;;;;;;;;37.00;32.67;;;;;;;;5112885;28;8783;-70
2023/08/19 13:18:54;;;;;;;;;32.67;30.67;;;;;;;;5112763;28;8776;-74
2023/08/19 13:21:20;;;;;;;;;36.00;32.33;;;;;;;;5093715;28;8854;-76
2023/08/19 13:23:45;;;;;;;;;37.67;32.67;;;;;;;;5112271;28;9608;-77
2023/08/19 13:26:10;;;;;;;;;33.33;30.00;;;;;;;;5111784;28;8878;-74
2023/08/19 13:28:36;;;;;;;;;32.00;30.33;;;;;;;;5112426;28;8807;-77
2023/08/19 13:31:01;;;;;;;;;20.67;19.67;;;;;;;;5112184;28;8833;-72
2023/08/19 13:33:27;;;;;;;;;32.67;31.00;;;;;;;;5111675;28;8901;-72
2023/08/19 13:35:53;;;;;;;;;36.00;31.00;;;;;;;;5112096;28;8800;-70
2023/08/19 13:38:19;;;;;;;;;32.33;29.67;;;;;;;;5112091;28;8826;-70
2023/08/19 13:40:44;;;;;;;;;30.33;29.33;;;;;;;;5112128;28;9066;-68
2023/08/19 13:43:12;;;;;;;;;37.67;33.00;;;;;;;;5111509;28;8808;-71
2023/08/19 13:45:38;;;;;;;;;31.33;30.00;;;;;;;;5111910;28;8813;-71
2023/08/19 13:48:03;;;;;;;;;30.00;27.33;;;;;;;;5111483;28;8981;-71
2023/08/19 13:50:28;;;;;;;;;15.67;15.67;;;;;;;;5111841;28;8836;-70
2023/08/19 13:52:54;;;;;;;;;27.67;27.00;;;;;;;;5112328;28;8803;-68
2023/08/19 13:55:19;;;;;;;;;21.33;19.67;;;;;;;;5112227;28;8893;-69
2023/08/19 13:57:44;;;;;;;;;23.33;23.33;;;;;;;;5112179;28;8823;-68
2023/08/19 14:00:15;;;;;;;;;17.00;16.00;;;;;;;;5111918;28;8816;-68
2023/08/19 14:02:42;;;;;;;;;15.50;15.00;;;;;;;;5093480;28;8799;-70
2023/08/19 14:05:09;;;;;;;;;16.25;14.75;;;;;;;;5111920;28;8799;-68
2023/08/19 14:07:34;;;;;;;;;23.75;21.00;;;;;;;;5111794;28;8812;-71
2023/08/19 14:09:59;;;;;;;;;26.00;25.67;;;;;;;;5111763;28;8804;-71
2023/08/19 14:12:25;;;;;;;;;16.33;14.67;;;;;;;;5111179;28;9566;-72
2023/08/19 14:14:50;;;;;;;;;10.67;10.67;;;;;;;;5111237;28;8872;-69
2023/08/19 14:17:15;;;;;;;;;26.33;26.33;;;;;;;;5109029;28;8818;-70
2023/08/19 14:19:41;;;;;;;;;27.67;27.33;;;;;;;;5110861;28;8944;-71
2023/08/19 14:22:06;;;;;;;;;25.67;24.00;;;;;;;;5092989;28;8813;-72
2023/08/19 14:24:31;;;;;;;;;37.00;30.00;;;;;;;;5111531;28;8784;-71
2023/08/19 14:26:56;;;;;;;;;40.00;31.33;;;;;;;;5111106;28;8823;-73
2023/08/19 14:29:22;;;;;;;;;39.67;33.00;;;;;;;;5110326;28;8797;-76
2023/08/19 14:31:47;;;;;;;;;38.00;33.33;;;;;;;;5111518;27;8837;-79
2023/08/19 14:34:12;;;;;;;;;35.67;31.33;;;;;;;;5111360;27;8795;-80
2023/08/19 14:36:37;;;;;;;;;31.00;29.33;;;;;;;;5110928;28;9606;-81
2023/08/19 14:39:04;;;;;;;;;38.00;31.67;;;;;;;;5111360;27;8803;-81
2023/08/19 14:41:30;;;;;;;;;32.50;30.25;;;;;;;;5132535;27;8801;-74
2023/08/19 14:43:55;;;;;;;;;37.00;30.33;;;;;;;;5112302;27;8825;-77
2023/08/19 14:46:20;;;;;;;;;33.00;31.00;;;;;;;;5130005;27;9023;-70
2023/08/19 14:48:47;;;;;;;;;34.00;30.00;;;;;;;;5129866;27;8820;-71
2023/08/19 14:51:12;;;;;;;;;16.00;16.00;;;;;;;;5130137;27;8850;-72
2023/08/19 14:53:38;;;;;;;;;21.00;18.00;;;;;;;;5129699;27;8905;-71
2023/08/19 14:56:03;;;;;;;;;14.33;14.33;;;;;;;;5129989;27;9056;-71
2023/08/19 14:58:29;;;;;;;;;32.67;30.00;;;;;;;;5129580;27;8813;-71
2023/08/19 15:00:54;;;;;;;;;17.00;15.67;;;;;;;;5129561;27;8849;-70
2023/08/19 15:03:19;;;;;;;;;31.67;29.67;;;;;;;;5108222;28;8797;-69
2023/08/19 15:05:45;;;;;;;;;35.67;30.67;;;;;;;;5107127;28;8912;-72
2023/08/19 15:08:10;;;;;;;;;15.67;15.33;;;;;;;;5107519;28;8812;-72
2023/08/19 15:10:37;;;;;;;;;16.67;16.00;;;;;;;;5107684;28;8843;-72
2023/08/19 15:13:02;;;;;;;;;15.00;13.75;;;;;;;;5107965;28;8985;-71
2023/08/19 15:15:28;;;;;;;;;15.33;14.00;;;;;;;;5107608;28;8800;-69
2023/08/19 15:17:53;;;;;;;;;8.00;8.00;;;;;;;;5107177;28;9396;-69
2023/08/19 15:20:18;;;;;;;;;14.00;13.33;;;;;;;;5108312;28;8843;-69
2023/08/19 15:22:43;;;;;;;;;32.67;30.00;;;;;;;;5108487;28;8768;-68
2023/08/19 15:25:09;;;;;;;;;33.33;29.00;;;;;;;;5108381;28;8830;-68
2023/08/19 15:27:34;;;;;;;;;32.33;30.00;;;;;;;;5108423;28;8776;-69
2023/08/19 15:30:00;;;;;;;;;21.33;21.00;;;;;;;;5107950;28;8804;-69
2023/08/19 15:32:28;;;;;;;;;13.00;12.33;;;;;;;;5090050;28;8822;-69
2023/08/19 15:34:54;;;;;;;;;28.00;26.75;;;;;;;;5108345;28;8918;-69
2023/08/19 15:37:19;;;;;;;;;31.67;28.00;;;;;;;;5108824;28;8800;-70
2023/08/19 15:39:44;;;;;;;;;18.33;18.33;;;;;;;;5108248;28;9840;-69
2023/08/19 15:42:13;;;;;;;;;28.67;28.00;;;;;;;;5108434;28;8804;-69
2023/08/19 15:44:38;;;;;;;;;15.00;15.00;;;;;;;;5108197;28;8772;-69
2023/08/19 15:47:04;;;;;;;;;26.00;26.00;;;;;;;;5107949;28;8914;-70
2023/08/19 15:49:29;;;;;;;;;19.33;18.33;;;;;;;;5107344;28;8866;-68
